Time;durP1;ratioP1;P1;durP2;ratioP2;P2;SDS_P1;SDS_P2;PMS_P1;PMS_P2;Temp;Humidity;BMP_temperature;BMP_pressure;BME280_temperature;BME280_humidity;BME280_pressure;Samples;Min_cycle;Max_cycle;Signal;HPM_P1;HPM_P2
2023/06/13 00:00:14;;;;;;;;;;;26.90;49.00;;;;;;4003807;29;19931;-54
2023/06/13 00:02:55;;;;;;;;;;;26.90;49.00;;;;;;4004015;29;19932;-53
2023/06/13 00:05:36;;;;;;;;;;;26.90;49.00;;;;;;4003281;29;19936;-52
2023/06/13 00:08:18;;;;;;;;;;;26.90;49.00;;;;;;4002608;29;19976;-54
2023/06/13 00:10:59;;;;;;;;;;;26.90;48.90;;;;;;3988571;29;19935;-54
2023/06/13 00:13:41;;;;;;;;;;;26.90;48.70;;;;;;3988544;29;20487;-55
2023/06/13 00:16:25;;;;;;;;;;;26.90;48.60;;;;;;3988493;29;19946;-54
2023/06/13 00:19:05;;;;;;;;;;;26.90;47.70;;;;;;3988491;29;19980;-54
2023/06/13 00:21:46;;;;;;;;;;;26.90;48.70;;;;;;3996321;29;19976;-56
2023/06/13 00:24:27;;;;;;;;;;;26.80;47.20;;;;;;4003204;29;20796;-55
2023/06/13 00:27:08;;;;;;;;;;;26.80;47.50;;;;;;4003417;29;19947;-54
2023/06/13 00:29:50;;;;;;;;;;;26.80;47.90;;;;;;4002537;29;19935;-54
2023/06/13 00:32:32;;;;;;;;;;;26.70;47.30;;;;;;3987871;29;19945;-53
2023/06/13 00:35:13;;;;;;;;;;;26.70;47.40;;;;;;3988006;29;19975;-53
2023/06/13 00:37:56;;;;;;;;;;;26.70;47.30;;;;;;3993975;29;19931;-53
2023/06/13 00:40:39;;;;;;;;;;;26.70;46.90;;;;;;4002985;29;19936;-52
2023/06/13 00:43:19;;;;;;;;;;;26.70;46.70;;;;;;4001893;29;19947;-52
2023/06/13 00:46:02;;;;;;;;;;;26.60;46.70;;;;;;4003032;29;19946;-52
2023/06/13 00:48:43;;;;;;;;;;;26.60;46.60;;;;;;4002927;29;19931;-53
2023/06/13 00:51:27;;;;;;;;;;;26.60;47.40;;;;;;4002877;29;20384;-51
2023/06/13 00:54:10;;;;;;;;;;;26.60;48.60;;;;;;3996056;29;20403;-51
2023/06/13 00:56:51;;;;;;;;;;;26.50;47.20;;;;;;4002545;29;19932;-50
2023/06/13 00:59:32;;;;;;;;;;;26.50;47.00;;;;;;4001747;29;19932;-51
2023/06/13 01:02:15;;;;;;;;;;;26.50;47.40;;;;;;4002620;29;20016;-53
2023/06/13 01:04:57;;;;;;;;;;;26.50;47.20;;;;;;4002499;29;20405;-53
2023/06/13 01:07:39;;;;;;;;;;;26.40;48.10;;;;;;4002681;29;20446;-54
2023/06/13 01:10:21;;;;;;;;;;;26.40;47.50;;;;;;4001022;29;20020;-55
2023/06/13 01:13:07;;;;;;;;;;;26.40;47.30;;;;;;4002653;29;20398;-55
2023/06/13 01:15:52;;;;;;;;;;;26.40;47.70;;;;;;4002491;29;19936;-51
2023/06/13 01:18:39;;;;;;;;;;;26.40;47.90;;;;;;4001278;29;20069;-55
2023/06/13 01:21:21;;;;;;;;;;;26.40;47.60;;;;;;4002318;29;19940;-52
2023/06/13 01:24:04;;;;;;;;;;;26.40;47.10;;;;;;4001290;29;19931;-51
2023/06/13 01:26:49;;;;;;;;;;;26.40;47.50;;;;;;4000859;29;20020;-55
2023/06/13 01:29:33;;;;;;;;;;;26.30;47.00;;;;;;4002314;29;20054;-54
2023/06/13 01:32:14;;;;;;;;;;;26.30;46.70;;;;;;4000758;29;19935;-52
2023/06/13 01:34:57;;;;;;;;;;;26.30;47.10;;;;;;4001243;29;19951;-53
2023/06/13 01:37:38;;;;;;;;;;;26.20;47.10;;;;;;4001548;29;20308;-50
2023/06/13 01:40:19;;;;;;;;;;;26.30;47.50;;;;;;4002584;29;19935;-52
2023/06/13 01:43:01;;;;;;;;;;;26.20;47.80;;;;;;4002373;29;20046;-54
2023/06/13 01:45:42;;;;;;;;;;;26.20;48.00;;;;;;4002603;29;19932;-53
2023/06/13 01:48:25;;;;;;;;;;;26.20;48.40;;;;;;4001044;29;19932;-51
2023/06/13 01:51:10;;;;;;;;;;;26.20;48.60;;;;;;3994306;29;20395;-54
2023/06/13 01:53:54;;;;;;;;;;;26.20;48.70;;;;;;4001237;29;19935;-54
2023/06/13 01:56:36;;;;;;;;;;;26.20;48.70;;;;;;4002280;29;20376;-54
2023/06/13 01:59:20;;;;;;;;;;;26.20;48.80;;;;;;4000773;29;19935;-51
2023/06/13 02:02:02;;;;;;;;;;;26.20;48.80;;;;;;3996536;29;19959;-51
2023/06/13 02:04:44;;;;;;;;;;;26.20;48.90;;;;;;3998702;29;19935;-54
2023/06/13 02:07:24;;;;;;;;;;;26.10;48.80;;;;;;4001892;29;19935;-53
2023/06/13 02:10:06;;;;;;;;;;;26.20;48.80;;;;;;4000804;29;19935;-52
2023/06/13 02:12:48;;;;;;;;;;;26.20;48.90;;;;;;4001743;29;20053;-51
2023/06/13 02:15:30;;;;;;;;;;;26.20;48.90;;;;;;4000922;29;20300;-54
2023/06/13 02:18:11;;;;;;;;;;;26.10;48.90;;;;;;3999778;29;19980;-54
2023/06/13 02:20:52;;;;;;;;;;;26.10;48.90;;;;;;3992358;29;19931;-55
2023/06/13 02:23:33;;;;;;;;;;;26.10;48.90;;;;;;4001968;29;19930;-53
2023/06/13 02:26:19;;;;;;;;;;;26.10;48.90;;;;;;4001577;29;19950;-55
2023/06/13 02:29:00;;;;;;;;;;;26.10;48.90;;;;;;4001500;29;20032;-52
2023/06/13 02:31:43;;;;;;;;;;;26.10;49.00;;;;;;4001919;29;20391;-55
2023/06/13 02:34:23;;;;;;;;;;;26.10;49.00;;;;;;4000322;29;20003;-55
2023/06/13 02:37:04;;;;;;;;;;;26.00;48.90;;;;;;3990294;29;19963;-56
2023/06/13 02:39:45;;;;;;;;;;;26.10;49.00;;;;;;4002202;29;19932;-57
2023/06/13 02:42:27;;;;;;;;;;;26.00;48.90;;;;;;4001778;29;20571;-55
2023/06/13 02:45:08;;;;;;;;;;;26.00;49.00;;;;;;4001546;29;19931;-56
2023/06/13 02:47:50;;;;;;;;;;;26.00;48.90;;;;;;3996078;29;20031;-57
2023/06/13 02:50:31;;;;;;;;;;;26.00;49.70;;;;;;3988691;29;20379;-55
2023/06/13 02:53:12;;;;;;;;;;;26.00;48.90;;;;;;4001835;29;19950;-57
2023/06/13 02:55:54;;;;;;;;;;;26.00;49.00;;;;;;4001982;29;19998;-57
2023/06/13 02:58:35;;;;;;;;;;;25.90;48.90;;;;;;4000790;29;20381;-54
2023/06/13 03:01:16;;;;;;;;;;;25.90;49.00;;;;;;3996470;29;20519;-51
2023/06/13 03:03:58;;;;;;;;;;;25.90;49.00;;;;;;4003645;29;19941;-53
2023/06/13 03:06:40;;;;;;;;;;;25.90;49.00;;;;;;4003667;29;19935;-54
2023/06/13 03:09:24;;;;;;;;;;;25.90;49.00;;;;;;4003717;29;19935;-52
2023/06/13 03:12:07;;;;;;;;;;;25.90;49.00;;;;;;4003456;29;20060;-50
2023/06/13 03:14:48;;;;;;;;;;;25.90;49.00;;;;;;4003692;29;19935;-51
2023/06/13 03:17:28;;;;;;;;;;;25.80;49.00;;;;;;4004414;29;20073;-53
2023/06/13 03:20:11;;;;;;;;;;;25.90;49.90;;;;;;4003291;29;19931;-50
2023/06/13 03:22:53;;;;;;;;;;;25.90;49.20;;;;;;4004712;29;19931;-55
2023/06/13 03:25:34;;;;;;;;;;;25.80;49.20;;;;;;4003497;29;19931;-54
2023/06/13 03:28:17;;;;;;;;;;;25.80;49.90;;;;;;4003276;29;20023;-54
2023/06/13 03:31:00;;;;;;;;;;;25.80;49.20;;;;;;4003074;29;20379;-54
2023/06/13 03:33:44;;;;;;;;;;;25.80;49.20;;;;;;4007073;29;20301;-51
2023/06/13 03:36:27;;;;;;;;;;;25.80;49.20;;;;;;4002961;29;20691;-52
2023/06/13 03:39:12;;;;;;;;;;;25.80;49.20;;;;;;4003275;29;19956;-53
2023/06/13 03:41:54;;;;;;;;;;;25.70;49.10;;;;;;4002810;29;20427;-50
2023/06/13 03:44:35;;;;;;;;;;;25.80;49.20;;;;;;4003267;29;19931;-50
2023/06/13 03:47:16;;;;;;;;;;;25.80;49.90;;;;;;4002970;29;20436;-53
2023/06/13 03:49:57;;;;;;;;;;;25.80;49.20;;;;;;4003813;29;19940;-56
2023/06/13 03:52:40;;;;;;;;;;;25.80;49.20;;;;;;3985784;29;20289;-55
2023/06/13 03:55:21;;;;;;;;;;;25.70;49.20;;;;;;3987975;29;19981;-57
2023/06/13 03:58:02;;;;;;;;;;;25.70;49.20;;;;;;3987800;29;20065;-57
2023/06/13 04:00:44;;;;;;;;;;;25.70;49.10;;;;;;3998239;29;19931;-50
2023/06/13 04:03:29;;;;;;;;;;;25.70;48.50;;;;;;4002366;29;20092;-57
2023/06/13 04:06:10;;;;;;;;;;;25.70;48.60;;;;;;4002881;29;20324;-54
2023/06/13 04:08:52;;;;;;;;;;;25.70;49.10;;;;;;4003844;29;20295;-57
2023/06/13 04:11:34;;;;;;;;;;;25.60;48.30;;;;;;4002716;29;19936;-55
2023/06/13 04:14:14;;;;;;;;;;;25.60;48.00;;;;;;4002795;29;19934;-55
2023/06/13 04:16:57;;;;;;;;;;;25.60;47.50;;;;;;4003610;29;19932;-54
2023/06/13 04:19:49;;;;;;;4.15;3.60;;;25.60;47.30;;;;;;4241430;27;20341;-55
2023/06/13 04:22:31;;;;;;;4.60;3.47;;;25.60;47.60;;;;;;4239465;27;20046;-55
2023/06/13 04:25:12;;;;;;;3.88;3.35;;;25.60;46.40;;;;;;4241301;27;20397;-55
2023/06/13 04:27:53;;;;;;;3.30;3.00;;;25.60;46.40;;;;;;4222114;28;20042;-55
2023/06/13 04:30:34;;;;;;;4.53;3.53;;;25.60;46.90;;;;;;4229008;27;20070;-56
2023/06/13 04:33:16;;;;;;;6.07;3.40;;;25.60;46.50;;;;;;4222125;28;20059;-55
2023/06/13 04:36:03;;;;;;;5.20;3.17;;;25.60;46.70;;;;;;4231385;27;20050;-58
2023/06/13 04:38:45;;;;;;;4.80;3.70;;;25.60;46.70;;;;;;4240309;27;20385;-54
2023/06/13 04:41:26;;;;;;;3.40;3.10;;;25.60;46.70;;;;;;4240120;27;20501;-56
2023/06/13 04:44:09;;;;;;;4.53;3.05;;;25.60;46.10;;;;;;4244092;27;20054;-56
2023/06/13 04:46:50;;;;;;;5.55;2.88;;;25.60;46.00;;;;;;4238811;27;20366;-56
2023/06/13 04:49:30;;;;;;;5.20;3.13;;;25.60;45.40;;;;;;4223202;28;20078;-56
2023/06/13 04:52:14;;;;;;;5.80;2.75;;;25.60;45.00;;;;;;4223307;28;20050;-56
2023/06/13 04:54:55;;;;;;;3.45;3.13;;;25.60;45.10;;;;;;4223062;28;20051;-57
2023/06/13 04:57:36;;;;;;;3.75;3.20;;;25.70;45.30;;;;;;4227337;27;20123;-57
2023/06/13 05:00:18;;;;;;;5.32;3.67;;;25.70;44.70;;;;;;4233861;27;20398;-56
2023/06/13 05:03:00;;;;;;;3.50;3.20;;;25.70;44.50;;;;;;4239800;27;20055;-58
2023/06/13 05:05:41;;;;;;;3.63;3.22;;;25.60;45.10;;;;;;4239297;27;20119;-60
2023/06/13 05:08:24;;;;;;;3.78;2.85;;;25.60;43.90;;;;;;4239652;27;20062;-59
2023/06/13 05:11:05;;;;;;;4.47;2.88;;;25.70;45.30;;;;;;4222568;28;20084;-61
2023/06/13 05:13:46;;;;;;;;;;;25.70;46.10;;;;;;4222923;28;20567;-60
2023/06/13 05:16:29;;;;;;;6.75;3.17;;;25.60;46.10;;;;;;4234349;27;19985;-60
2023/06/13 05:19:10;;;;;;;9.55;3.30;;;25.70;46.70;;;;;;4226027;27;20054;-59
2023/06/13 05:21:51;;;;;;;3.10;2.88;;;25.70;46.60;;;;;;4223986;27;20047;-60
2023/06/13 05:24:34;;;;;;;4.15;3.08;;;25.80;46.40;;;;;;4224053;27;20058;-59
2023/06/13 05:27:15;;;;;;;2.95;2.75;;;25.80;45.80;;;;;;4229153;27;20050;-59
2023/06/13 05:29:56;;;;;;;;;;;25.90;45.30;;;;;;4218338;28;20051;-59
2023/06/13 05:32:37;;;;;;;3.15;2.75;;;26.00;45.00;;;;;;4226384;27;19979;-59
2023/06/13 05:35:19;;;;;;;3.50;3.10;;;26.10;44.80;;;;;;4227877;27;20132;-60
2023/06/13 05:37:59;;;;;;;;;;;26.10;43.60;;;;;;4217733;28;20051;-59
2023/06/13 05:40:44;;;;;;;3.38;3.13;;;26.20;43.40;;;;;;4222817;27;20278;-59
2023/06/13 05:43:24;;;;;;;3.72;2.90;;;26.30;43.40;;;;;;4222090;27;20047;-60
2023/06/13 05:46:05;;;;;;;7.00;2.70;;;26.30;43.40;;;;;;4210174;28;20069;-60
2023/06/13 05:48:46;;;;;;;3.55;3.28;;;26.40;43.00;;;;;;4233060;27;20065;-59
2023/06/13 05:51:28;;;;;;;;;;;26.40;42.70;;;;;;4230553;27;20054;-60
2023/06/13 05:54:09;;;;;;;;;;;26.40;42.40;;;;;;4228522;28;19931;-60
2023/06/13 05:56:51;;;;;;;4.23;3.10;;;26.40;43.50;;;;;;4227746;27;19926;-59
2023/06/13 05:59:31;;;;;;;4.18;2.40;;;26.40;43.30;;;;;;4220234;28;20077;-60
2023/06/13 06:02:13;;;;;;;;;;;26.40;43.10;;;;;;4226582;27;20053;-59
2023/06/13 06:04:55;;;;;;;4.40;3.45;;;26.30;43.50;;;;;;4227539;27;19931;-60
2023/06/13 06:07:36;;;;;;;3.70;2.70;;;26.30;43.60;;;;;;4227394;27;20173;-59
2023/06/13 06:10:18;;;;;;;4.50;2.75;;;26.30;42.70;;;;;;4209697;28;20097;-59
2023/06/13 06:13:00;;;;;;;3.88;3.35;;;26.30;43.20;;;;;;4226744;27;20062;-59
2023/06/13 06:15:41;;;;;;;3.50;2.83;;;26.40;42.50;;;;;;4227157;27;20059;-60
2023/06/13 06:18:22;;;;;;;4.15;2.50;;;26.40;43.40;;;;;;4224995;28;20069;-60
2023/06/13 06:21:04;;;;;;;2.90;2.67;;;26.40;42.20;;;;;;4224389;27;20543;-60
2023/06/13 06:23:46;;;;;;;4.85;2.40;;;26.40;42.20;;;;;;4226608;27;20097;-60
2023/06/13 06:26:27;;;;;;;3.88;2.92;;;26.50;42.70;;;;;;4227435;27;20402;-60
2023/06/13 06:29:10;;;;;;;2.67;2.47;;;26.50;41.90;;;;;;4227289;28;20096;-60
2023/06/13 06:31:51;;;;;;;3.20;2.78;;;26.50;41.60;;;;;;4210382;28;20051;-60
2023/06/13 06:34:32;;;;;;;4.78;2.70;;;26.60;42.00;;;;;;4224816;27;20058;-60
2023/06/13 06:37:13;;;;;;;2.53;2.38;;;26.60;42.00;;;;;;4209697;28;20154;-60
2023/06/13 06:39:54;;;;;;;2.60;2.13;;;26.60;41.50;;;;;;4210105;28;20501;-60
2023/06/13 06:42:35;;;;;;;2.55;2.40;;;26.70;41.90;;;;;;4211798;28;20053;-60
2023/06/13 06:45:24;;;;;;;2.60;2.45;;;26.70;41.40;;;;;;4208946;28;20066;-60
2023/06/13 06:48:05;;;;;;;5.60;2.65;;;26.80;41.60;;;;;;4210133;28;20141;-60
2023/06/13 06:50:46;;;;;;;3.92;2.33;;;26.80;41.80;;;;;;4213404;28;20047;-61
2023/06/13 06:53:27;;;;;;;4.65;2.33;;;26.90;41.50;;;;;;4226906;27;20710;-59
2023/06/13 06:56:08;;;;;;;3.15;2.42;;;26.90;41.70;;;;;;4209907;28;20521;-60
2023/06/13 06:58:49;;;;;;;4.50;2.40;;;27.00;41.10;;;;;;4209616;28;20406;-60
2023/06/13 07:01:31;;;;;;;;;;;27.00;41.50;;;;;;4221155;27;20051;-60
2023/06/13 07:04:12;;;;;;;3.67;2.20;;;27.00;42.30;;;;;;4226307;27;20431;-60
2023/06/13 07:06:53;;;;;;;2.50;2.30;;;27.10;41.50;;;;;;4209617;28;20066;-60
2023/06/13 07:09:34;;;;;;;4.40;2.80;;;27.10;41.70;;;;;;4225145;27;20104;-61
2023/06/13 07:12:15;;;;;;;4.38;2.47;;;27.10;41.40;;;;;;4226224;28;20104;-60
2023/06/13 07:14:56;;;;;;;2.95;2.60;;;27.10;42.10;;;;;;4225494;27;20058;-61
2023/06/13 07:17:38;;;;;;;6.20;2.53;;;27.10;41.00;;;;;;4204437;28;20051;-60
2023/06/13 07:20:21;;;;;;;5.25;2.58;;;27.10;41.30;;;;;;4213788;28;20096;-60
2023/06/13 07:23:02;;;;;;;3.03;2.78;;;27.10;41.20;;;;;;4208830;28;20055;-60
2023/06/13 07:25:43;;;;;;;4.32;2.67;;;27.20;41.20;;;;;;4211516;28;20059;-60
2023/06/13 07:28:24;;;;;;;;;;;27.20;41.80;;;;;;4223986;27;20046;-60
2023/06/13 07:31:05;;;;;;;2.80;2.60;;;27.20;42.20;;;;;;4224073;28;19938;-60
2023/06/13 07:33:47;;;;;;;3.03;2.25;;;27.10;41.90;;;;;;4220655;27;20177;-62
2023/06/13 07:36:30;;;;;;;2.60;2.50;;;27.10;41.70;;;;;;4233032;27;20046;-54
2023/06/13 07:39:13;;;;;;;3.67;2.70;;;27.10;41.60;;;;;;4223487;27;20254;-55
2023/06/13 07:41:54;;;;;;;2.42;2.30;;;27.10;41.50;;;;;;4243026;27;20045;-53
2023/06/13 07:44:35;;;;;;;2.63;2.50;;;27.10;41.30;;;;;;4200089;28;20113;-51
2023/06/13 07:47:16;;;;;;;2.65;2.47;;;27.10;41.40;;;;;;4208910;28;20055;-52
2023/06/13 07:49:58;;;;;;;;;;;27.10;42.00;;;;;;4209255;28;20055;-60
2023/06/13 07:52:40;;;;;;;2.90;2.70;;;27.10;41.90;;;;;;4208655;28;19972;-60
2023/06/13 07:55:21;;;;;;;6.45;2.47;;;27.00;43.10;;;;;;4225403;27;20096;-60
2023/06/13 07:58:03;;;;;;;2.58;2.38;;;27.00;42.00;;;;;;4225734;28;20406;-60
2023/06/13 08:00:44;;;;;;;3.65;2.30;;;27.00;42.00;;;;;;4225848;28;20043;-60
2023/06/13 08:03:25;;;;;;;2.97;2.67;;;27.00;42.00;;;;;;4210200;28;20047;-60
2023/06/13 08:06:08;;;;;;;4.93;2.78;;;27.00;41.80;;;;;;4210149;28;20074;-60
2023/06/13 08:08:49;;;;;;;2.78;2.53;;;27.00;41.60;;;;;;4209018;28;21130;-60
2023/06/13 08:11:30;;;;;;;3.00;2.80;;;27.00;41.30;;;;;;4216300;27;20042;-61
2023/06/13 08:14:12;;;;;;;3.92;2.75;;;27.00;41.30;;;;;;4212678;28;20059;-60
2023/06/13 08:16:55;;;;;;;3.08;2.88;;;27.00;41.90;;;;;;4213088;28;20042;-60
2023/06/13 08:19:35;;;;;;;;;;;27.00;41.70;;;;;;4210484;28;20062;-60
2023/06/13 08:22:18;;;;;;;3.53;2.97;;;27.00;42.10;;;;;;4216543;28;20285;-60
2023/06/13 08:24:59;;;;;;;5.38;2.78;;;27.00;41.60;;;;;;4225423;27;20043;-60
2023/06/13 08:27:41;;;;;;;3.45;2.58;;;27.00;42.10;;;;;;4224381;27;20074;-60
2023/06/13 08:30:22;;;;;;;6.57;2.90;;;27.00;42.30;;;;;;4207386;28;20051;-60
2023/06/13 08:33:04;;;;;;;3.00;2.80;;;27.00;42.20;;;;;;4208646;28;20182;-60
2023/06/13 08:35:47;;;;;;;5.25;2.80;;;27.00;42.40;;;;;;4221125;28;20068;-60
2023/06/13 08:38:29;;;;;;;;;;;27.00;41.80;;;;;;4224843;28;20050;-60
2023/06/13 08:41:30;;;;;;;2.55;2.40;;;27.00;41.60;;;;;;4223892;28;20278;-60
2023/06/13 08:44:11;;;;;;;2.95;2.72;;;27.00;42.00;;;;;;4209974;28;20100;-60
2023/06/13 08:46:52;;;;;;;3.63;2.72;;;27.10;42.50;;;;;;4213976;28;20062;-60
2023/06/13 08:49:35;;;;;;;4.38;2.40;;;27.10;40.80;;;;;;4208928;28;20059;-60
2023/06/13 08:52:19;;;;;;;3.67;2.65;;;27.10;40.60;;;;;;4224002;28;20050;-60
2023/06/13 08:55:03;;;;;;;3.47;2.45;;;27.10;41.00;;;;;;4208008;28;20120;-60
2023/06/13 08:57:59;;;;;;;8.82;2.80;;;27.10;40.60;;;;;;4224407;28;20054;-60
2023/06/13 09:00:40;;;;;;;2.80;2.50;;;27.20;41.20;;;;;;4209011;28;20111;-60
2023/06/13 09:03:22;;;;;;;3.63;2.65;;;27.20;40.90;;;;;;4218654;28;20501;-60
2023/06/13 09:06:05;;;;;;;3.90;2.60;;;27.20;40.80;;;;;;4227555;27;20069;-59
2023/06/13 09:08:46;;;;;;;2.85;2.60;;;27.20;41.30;;;;;;4228662;27;20075;-54
2023/06/13 09:11:29;;;;;;;3.10;2.90;;;27.20;41.20;;;;;;4228194;27;20057;-57
2023/06/13 09:14:11;;;;;;;4.15;2.80;;;27.30;41.00;;;;;;4210980;28;20051;-57
2023/06/13 09:16:55;;;;;;;2.42;2.33;;;27.30;40.60;;;;;;4221622;27;20062;-57
2023/06/13 09:19:36;;;;;;;4.60;2.58;;;27.30;40.60;;;;;;4224883;27;20059;-56
2023/06/13 09:22:18;;;;;;;3.03;2.72;;;27.30;41.00;;;;;;4214372;28;20063;-57
2023/06/13 09:25:00;;;;;;;2.60;2.40;;;27.40;40.60;;;;;;4196591;28;20097;-57
2023/06/13 09:27:43;;;;;;;4.50;2.60;;;27.40;39.70;;;;;;4228318;28;20103;-57
2023/06/13 09:30:23;;;;;;;2.58;2.33;;;27.40;39.50;;;;;;4211384;28;20051;-56
2023/06/13 09:33:05;;;;;;;2.65;2.53;;;27.40;40.10;;;;;;4211304;28;20067;-56
2023/06/13 09:35:46;;;;;;;3.40;2.50;;;27.40;39.80;;;;;;4209939;28;20043;-57
2023/06/13 09:38:27;;;;;;;3.45;2.75;;;27.50;39.20;;;;;;4212034;28;20509;-57
2023/06/13 09:41:09;;;;;;;2.60;2.40;;;27.50;39.00;;;;;;4240006;27;20058;-56
2023/06/13 09:43:53;;;;;;;2.92;2.72;;;27.50;40.20;;;;;;4245040;27;20050;-57
2023/06/13 09:46:36;;;;;;;3.20;2.90;;;27.50;39.40;;;;;;4244900;27;20176;-57
2023/06/13 09:49:17;;;;;;;3.90;2.50;;;27.50;38.60;;;;;;4238857;27;20413;-57
2023/06/13 09:52:00;;;;;;;3.75;2.58;;;27.50;38.20;;;;;;4193049;28;20051;-57
2023/06/13 09:54:44;;;;;;;5.47;2.50;;;27.60;39.40;;;;;;4221307;28;20490;-57
2023/06/13 09:57:25;;;;;;;3.80;2.90;;;27.60;38.20;;;;;;4226417;28;20066;-57
2023/06/13 10:00:23;;;;;;;3.35;2.70;;;27.60;37.90;;;;;;4233733;27;20042;-56
2023/06/13 10:03:06;;;;;;;3.03;2.67;;;27.60;38.20;;;;;;4244630;27;20062;-57
2023/06/13 10:05:57;;;;;;;2.92;2.65;;;27.60;38.20;;;;;;4237388;27;20158;-56
2023/06/13 10:08:38;;;;;;;3.08;2.83;;;27.70;39.00;;;;;;4225821;27;20054;-57
2023/06/13 10:11:22;;;;;;;;;;;27.70;38.60;;;;;;4226729;27;20047;-56
2023/06/13 10:14:08;;;;;;;4.57;2.80;;;27.70;39.80;;;;;;4227571;27;19930;-57
2023/06/13 10:16:54;;;;;;;3.13;2.38;;;27.70;39.00;;;;;;4227302;27;20050;-57
2023/06/13 10:19:52;;;;;;;3.20;2.75;;;27.70;37.50;;;;;;4225668;27;20059;-56
2023/06/13 10:22:35;;;;;;;2.70;2.50;;;27.70;38.10;;;;;;4211631;28;20185;-57
2023/06/13 10:25:21;;;;;;;3.63;2.60;;;27.70;37.30;;;;;;4227220;27;20054;-57
2023/06/13 10:28:18;;;;;;;5.07;2.78;;;27.70;37.70;;;;;;4225883;28;20065;-57
2023/06/13 10:31:10;;;;;;;2.92;2.45;;;27.70;36.80;;;;;;4241788;27;20062;-57
2023/06/13 10:34:07;;;;;;;2.72;2.28;;;27.70;37.00;;;;;;4217248;27;20421;-56
2023/06/13 10:37:23;;;;;;;4.82;3.13;;;27.70;38.10;;;;;;4209881;28;20493;-56
2023/06/13 10:40:43;;;;;;;3.45;2.63;;;27.70;38.30;;;;;;4209478;27;20054;-56
2023/06/13 10:43:33;;;;;;;3.93;2.80;;;27.70;38.60;;;;;;4207075;28;20043;-57
2023/06/13 10:46:15;;;;;;;3.08;2.78;;;27.80;38.80;;;;;;4220850;28;20783;-57
2023/06/13 10:48:59;;;;;;;4.55;2.47;;;27.80;38.90;;;;;;4221575;27;20535;-57
2023/06/13 10:51:43;;;;;;;2.65;2.38;;;27.80;38.40;;;;;;4226888;27;20054;-57
2023/06/13 10:54:26;;;;;;;4.35;2.58;;;27.80;38.30;;;;;;4226729;27;20046;-56
2023/06/13 10:57:08;;;;;;;5.47;3.05;;;27.80;38.10;;;;;;4209720;28;20394;-57
2023/06/13 10:59:49;;;;;;;3.20;2.70;;;27.80;38.20;;;;;;4226960;27;20160;-57
2023/06/13 11:02:37;;;;;;;2.70;2.25;;;27.80;38.00;;;;;;4224134;28;20504;-57
2023/06/13 11:05:19;;;;;;;3.25;2.60;;;27.80;37.50;;;;;;4209888;28;20071;-57
2023/06/13 11:08:06;;;;;;;4.82;2.53;;;27.80;37.50;;;;;;4225255;27;20509;-57
2023/06/13 11:10:47;;;;;;;7.30;2.90;;;27.90;37.70;;;;;;4226787;28;20124;-57
2023/06/13 11:13:33;;;;;;;4.18;2.40;;;27.90;37.80;;;;;;4226595;27;20054;-57
2023/06/13 11:16:19;;;;;;;3.83;2.40;;;27.90;38.10;;;;;;4226525;27;20092;-50
2023/06/13 11:19:06;;;;;;;3.00;2.80;;;27.90;37.40;;;;;;4209373;28;20121;-48
2023/06/13 11:21:52;;;;;;;2.40;2.28;;;27.90;37.10;;;;;;4223370;28;20152;-50
2023/06/13 11:24:35;;;;;;;3.72;2.47;;;27.90;37.30;;;;;;4209505;28;20402;-49
2023/06/13 11:27:16;;;;;;;3.35;2.35;;;27.90;37.30;;;;;;4208105;28;20498;-52
2023/06/13 11:29:57;;;;;;;3.90;2.38;;;27.90;36.80;;;;;;4208250;28;20097;-49
2023/06/13 11:32:40;;;;;;;2.67;2.40;;;27.90;37.20;;;;;;4207858;28;20067;-49
2023/06/13 11:35:24;;;;;;;3.30;2.42;;;27.90;37.50;;;;;;4208134;28;20084;-48
2023/06/13 11:38:15;;;;;;;5.38;2.60;;;27.90;37.40;;;;;;4208160;28;20059;-48
2023/06/13 11:40:57;;;;;;;4.03;2.28;;;27.90;37.50;;;;;;4209048;28;20058;-49
2023/06/13 11:43:38;;;;;;;3.38;2.60;;;27.90;38.10;;;;;;4209376;28;20051;-49
2023/06/13 11:46:19;;;;;;;;;;;27.90;37.80;;;;;;4206875;28;20062;-49
2023/06/13 11:49:00;;;;;;;2.88;2.35;;;28.00;38.20;;;;;;4225712;27;19927;-54
2023/06/13 11:51:42;;;;;;;6.45;2.70;;;27.90;38.30;;;;;;4225559;28;20186;-52
2023/06/13 11:54:31;;;;;;;3.33;2.42;;;27.90;38.40;;;;;;4223946;27;20120;-51
2023/06/13 11:57:12;;;;;;;4.70;2.17;;;28.00;38.40;;;;;;4225170;27;20414;-49
2023/06/13 11:59:59;;;;;;;3.60;2.53;;;28.00;38.40;;;;;;4216512;28;20050;-49
2023/06/13 12:02:40;;;;;;;2.50;2.30;;;28.00;38.50;;;;;;4210654;27;20054;-49
2023/06/13 12:05:22;;;;;;;6.13;3.10;;;28.00;38.00;;;;;;4242309;27;20508;-48
2023/06/13 12:08:03;;;;;;;5.47;2.47;;;28.00;37.60;;;;;;4242679;27;20120;-50
2023/06/13 12:10:48;;;;;;;2.53;2.33;;;28.00;37.80;;;;;;4242986;27;20054;-50
2023/06/13 12:13:30;;;;;;;2.80;2.50;;;28.00;37.20;;;;;;4209658;28;20096;-51
2023/06/13 12:16:10;;;;;;;4.18;2.38;;;28.00;37.40;;;;;;4209123;28;20105;-50
2023/06/13 12:18:53;;;;;;;4.63;2.75;;;28.00;37.80;;;;;;4208515;28;20054;-51
2023/06/13 12:21:35;;;;;;;2.60;2.45;;;28.00;37.60;;;;;;4212755;28;20505;-49
2023/06/13 12:24:16;;;;;;;2.38;2.17;;;28.00;37.50;;;;;;4224986;28;20542;-51
2023/06/13 12:26:58;;;;;;;3.47;2.28;;;28.10;37.40;;;;;;4225209;28;20058;-50
2023/06/13 12:29:41;;;;;;;2.55;2.45;;;28.00;37.40;;;;;;4212421;28;20050;-52
2023/06/13 12:32:25;;;;;;;2.58;2.30;;;28.10;37.10;;;;;;4209278;28;20102;-52
2023/06/13 12:35:06;;;;;;;3.53;2.72;;;28.10;37.20;;;;;;4212264;28;20047;-49
2023/06/13 12:37:55;;;;;;;;;;;28.10;37.10;;;;;;4224934;28;20051;-49
2023/06/13 12:40:36;;;;;;;4.18;2.20;;;28.10;37.10;;;;;;4210403;28;20328;-50
2023/06/13 12:43:23;;;;;;;2.35;2.25;;;28.10;36.90;;;;;;4221599;28;20177;-49
2023/06/13 12:46:05;;;;;;;5.78;2.45;;;28.10;36.60;;;;;;4209428;28;20073;-51
2023/06/13 12:48:46;;;;;;;;;;;28.10;36.60;;;;;;4199332;28;20078;-48
2023/06/13 12:51:28;;;;;;;3.25;2.42;;;28.10;37.00;;;;;;4201536;28;19947;-50
2023/06/13 12:54:12;;;;;;;6.07;2.63;;;28.10;37.20;;;;;;4228887;27;20058;-50
2023/06/13 12:56:55;;;;;;;2.40;2.20;;;28.10;36.30;;;;;;4237357;27;20070;-52
2023/06/13 12:59:39;;;;;;;5.82;2.63;;;28.10;36.70;;;;;;4239753;27;20066;-57
2023/06/13 13:02:23;;;;;;;3.03;2.58;;;28.10;36.10;;;;;;4223705;27;20058;-57
2023/06/13 13:05:04;;;;;;;3.88;2.20;;;28.20;37.40;;;;;;4227381;27;20050;-57
2023/06/13 13:07:46;;;;;;;3.60;2.42;;;28.20;36.30;;;;;;4226501;27;20043;-56
2023/06/13 13:10:26;;;;;;;4.18;2.15;;;28.20;36.50;;;;;;4224754;27;20051;-56
2023/06/13 13:13:07;;;;;;;;;;;28.20;36.30;;;;;;4234812;27;20054;-56
2023/06/13 13:15:50;;;;;;;3.03;2.53;;;28.20;37.10;;;;;;4211844;28;19931;-56
2023/06/13 13:18:31;;;;;;;7.97;2.60;;;28.20;37.10;;;;;;4211366;28;20055;-57
2023/06/13 13:21:12;;;;;;;3.22;2.72;;;28.20;36.40;;;;;;4211390;28;20047;-56
2023/06/13 13:23:53;;;;;;;;;;;28.20;36.50;;;;;;4215407;27;20047;-57
2023/06/13 13:26:34;;;;;;;4.97;2.25;;;28.20;36.90;;;;;;4231403;27;19926;-57
2023/06/13 13:29:16;;;;;;;3.60;2.20;;;28.20;37.10;;;;;;4244611;27;20481;-56
2023/06/13 13:31:58;;;;;;;2.45;2.35;;;28.20;37.00;;;;;;4242624;27;20054;-56
2023/06/13 13:34:39;;;;;;;3.45;2.65;;;28.20;36.40;;;;;;4232474;27;20054;-56
2023/06/13 13:37:20;;;;;;;4.68;2.70;;;28.20;36.20;;;;;;4221612;27;20053;-56
2023/06/13 13:40:04;;;;;;;3.63;2.55;;;28.30;36.90;;;;;;4210250;28;20583;-56
2023/06/13 13:42:45;;;;;;;5.00;2.22;;;28.30;37.30;;;;;;4226802;27;20051;-56
2023/06/13 13:45:26;;;;;;;2.28;2.17;;;28.30;36.90;;;;;;4212040;28;20485;-57
2023/06/13 13:48:10;;;;;;;4.35;2.10;;;28.30;37.30;;;;;;4217452;27;20062;-56
2023/06/13 13:50:53;;;;;;;4.25;2.38;;;28.30;36.90;;;;;;4224853;27;20051;-57
2023/06/13 13:53:34;;;;;;;4.22;2.33;;;28.30;37.20;;;;;;4224741;27;20062;-57
2023/06/13 13:56:15;;;;;;;;;;;28.30;36.90;;;;;;4242781;27;20428;-57
2023/06/13 13:58:56;;;;;;;;;;;28.30;37.20;;;;;;4228481;27;19926;-57
2023/06/13 14:01:37;;;;;;;2.90;2.58;;;28.30;37.90;;;;;;4226206;27;19931;-55
2023/06/13 14:04:20;;;;;;;3.25;2.33;;;28.30;37.40;;;;;;4234037;27;20097;-56
2023/06/13 14:07:00;;;;;;;2.50;2.40;;;28.30;37.20;;;;;;4210602;28;20104;-56
2023/06/13 14:09:41;;;;;;;5.00;2.80;;;28.30;36.90;;;;;;4212621;27;20500;-56
2023/06/13 14:12:22;;;;;;;2.47;2.25;;;28.30;37.60;;;;;;4237906;27;20050;-56
2023/06/13 14:15:04;;;;;;;6.47;2.65;;;28.30;37.60;;;;;;4242290;27;20054;-56
2023/06/13 14:17:46;;;;;;;2.60;2.40;;;28.30;37.50;;;;;;4195546;28;20055;-57
2023/06/13 14:20:28;;;;;;;3.97;2.25;;;28.30;37.70;;;;;;4209844;28;20055;-56
2023/06/13 14:23:12;;;;;;;6.35;2.40;;;28.30;37.70;;;;;;4238139;27;20069;-56
2023/06/13 14:25:53;;;;;;;3.05;2.35;;;28.40;37.30;;;;;;4210523;28;20054;-56
2023/06/13 14:28:34;;;;;;;2.63;2.50;;;28.40;37.50;;;;;;4216496;27;20058;-55
2023/06/13 14:31:15;;;;;;;;;;;28.40;37.60;;;;;;4227243;27;20046;-57
2023/06/13 14:33:56;;;;;;;;;;;28.40;37.30;;;;;;4218373;27;20000;-50
2023/06/13 14:36:38;;;;;;;2.42;2.20;;;28.40;37.60;;;;;;4235614;27;19926;-48
2023/06/13 14:39:19;;;;;;;4.65;2.28;;;28.40;38.20;;;;;;4241944;27;20046;-50